createdAt,value
2018-11-01T00:01:02.044Z,4.83
2018-11-01T00:03:30.112Z,4.80
2018-11-01T00:05:58.148Z,5.87
2018-11-01T00:08:26.375Z,4.70
2018-11-01T00:10:54.535Z,5.58
2018-11-01T00:13:22.560Z,5.40
2018-11-01T00:15:50.580Z,5.00
2018-11-01T00:18:18.608Z,4.75
2018-11-01T00:20:46.635Z,4.70
2018-11-01T00:23:14.653Z,5.50
2018-11-01T00:25:42.668Z,5.00
2018-11-01T00:28:10.708Z,4.85
2018-11-01T00:30:38.736Z,5.10
2018-11-01T00:33:06.748Z,5.67
2018-11-01T00:35:34.752Z,5.72
2018-11-01T00:38:02.801Z,5.50
2018-11-01T00:40:30.819Z,5.50
2018-11-01T00:42:58.828Z,5.40
2018-11-01T00:45:26.860Z,8.15
2018-11-01T00:47:54.883Z,5.22
2018-11-01T00:50:22.936Z,5.97
2018-11-01T00:52:50.976Z,5.25
2018-11-01T00:55:18.980Z,6.15
2018-11-01T00:57:47.009Z,6.10
2018-11-01T01:00:15.845Z,5.10
2018-11-01T01:02:43.888Z,5.50
2018-11-01T01:05:12.182Z,8.30
2018-11-01T01:07:40.216Z,7.10
2018-11-01T01:10:10.308Z,5.80
2018-11-01T01:12:38.656Z,5.80
2018-11-01T01:15:07.348Z,5.40
2018-11-01T01:17:35.384Z,5.25
2018-11-01T01:20:04.325Z,5.40
2018-11-01T01:22:32.356Z,5.20
2018-11-01T01:25:00.369Z,5.40
2018-11-01T01:27:28.393Z,6.47
2018-11-01T01:29:56.421Z,6.50
2018-11-01T01:32:24.439Z,5.60
2018-11-01T01:34:52.452Z,5.60
2018-11-01T01:37:20.481Z,6.30
2018-11-01T01:39:48.505Z,5.65
2018-11-01T01:42:16.540Z,6.70
2018-11-01T01:44:44.560Z,4.90
2018-11-01T01:47:12.576Z,6.33
2018-11-01T01:49:40.605Z,5.00
2018-11-01T01:52:08.620Z,5.30
2018-11-01T01:54:36.655Z,6.12
2018-11-01T01:57:04.723Z,5.58
2018-11-01T01:59:32.729Z,5.25
2018-11-01T02:02:00.748Z,5.40
2018-11-01T02:04:28.764Z,6.10
2018-11-01T02:06:56.772Z,5.78
2018-11-01T02:09:24.804Z,5.60
2018-11-01T02:11:53.024Z,5.50
2018-11-01T02:14:20.852Z,5.95
2018-11-01T02:16:48.865Z,5.72
2018-11-01T02:19:16.876Z,4.70
2018-11-01T02:21:44.919Z,5.00
2018-11-01T02:24:12.944Z,4.60
2018-11-01T02:26:40.957Z,4.55
2018-11-01T02:29:08.980Z,5.12
2018-11-01T02:31:36.995Z,5.40
2018-11-01T02:34:05.245Z,5.00
2018-11-01T02:36:33.253Z,5.70
2018-11-01T02:39:01.287Z,4.80
2018-11-01T02:41:29.296Z,5.62
2018-11-01T02:43:57.317Z,4.78
2018-11-01T02:46:25.357Z,4.50
2018-11-01T02:48:53.378Z,4.92
2018-11-01T02:51:21.388Z,4.75
2018-11-01T02:53:49.396Z,4.65
2018-11-01T02:56:17.405Z,4.65
2018-11-01T02:58:45.424Z,4.40
2018-11-01T03:01:18.068Z,4.60
2018-11-01T03:03:47.257Z,4.70
2018-11-01T03:06:15.440Z,4.62
2018-11-01T03:08:43.488Z,5.03
2018-11-01T03:11:11.681Z,5.00
2018-11-01T03:13:39.713Z,4.93
2018-11-01T03:16:08.042Z,5.42
2018-11-01T03:18:36.224Z,5.50
2018-11-01T03:21:04.246Z,4.80
2018-11-01T03:23:32.540Z,6.00
2018-11-01T03:26:00.572Z,5.00
2018-11-01T03:28:28.584Z,5.23
2018-11-01T03:30:56.766Z,4.42
2018-11-01T03:33:24.780Z,5.45
2018-11-01T03:35:52.774Z,6.30
2018-11-01T03:38:20.850Z,5.17
2018-11-01T03:40:48.815Z,5.20
2018-11-01T03:43:16.820Z,4.55
2018-11-01T03:45:44.882Z,5.15
2018-11-01T03:48:12.846Z,5.22
2018-11-01T03:50:40.865Z,5.50
2018-11-01T03:53:08.904Z,5.70
2018-11-01T03:55:36.895Z,5.80
2018-11-01T03:58:05.184Z,6.25
2018-11-01T04:00:33.188Z,5.00
2018-11-01T04:03:01.212Z,6.00
2018-11-01T04:05:29.222Z,6.20
2018-11-01T04:07:57.233Z,8.23
2018-11-01T04:10:25.244Z,5.90
2018-11-01T04:12:53.260Z,5.80
2018-11-01T04:15:21.416Z,7.97
2018-11-01T04:17:49.340Z,5.58
2018-11-01T04:20:17.365Z,5.42
2018-11-01T04:22:45.418Z,5.97
2018-11-01T04:25:13.822Z,5.77
2018-11-01T04:27:42.182Z,6.20
2018-11-01T04:30:10.364Z,5.97
2018-11-01T04:32:38.378Z,6.00
2018-11-01T04:35:06.809Z,5.10
2018-11-01T04:37:34.805Z,6.22
2018-11-01T04:40:02.853Z,6.35
2018-11-01T04:42:30.881Z,6.07
2018-11-01T04:44:58.985Z,5.97
2018-11-01T04:47:27.025Z,7.65
2018-11-01T04:49:54.960Z,7.12
2018-11-01T04:52:22.984Z,6.50
2018-11-01T04:54:51.003Z,6.80
2018-11-01T04:57:19.016Z,6.65
2018-11-01T04:59:47.036Z,6.42
2018-11-01T05:02:15.049Z,6.97
2018-11-01T05:04:43.077Z,8.78
2018-11-01T05:07:11.075Z,7.00
2018-11-01T05:09:39.088Z,8.45
2018-11-01T05:12:07.112Z,7.12
2018-11-01T05:14:35.137Z,6.20
2018-11-01T05:17:03.148Z,5.85
2018-11-01T05:19:31.156Z,6.70
2018-11-01T05:21:59.159Z,6.70
2018-11-01T05:24:27.193Z,7.25
2018-11-01T05:26:55.210Z,8.00
2018-11-01T05:29:23.231Z,6.83
2018-11-01T05:31:51.304Z,8.15
2018-11-01T05:34:19.340Z,6.60
2018-11-01T05:36:47.378Z,6.78
2018-11-01T05:39:15.426Z,7.20
2018-11-01T05:41:43.459Z,7.67
2018-11-01T05:44:11.476Z,8.08
2018-11-01T05:46:39.513Z,7.50
2018-11-01T05:49:07.524Z,7.95
2018-11-01T05:51:35.548Z,7.95
2018-11-01T05:54:03.660Z,11.65
2018-11-01T05:56:35.162Z,8.50
2018-11-01T05:59:06.440Z,8.68
2018-11-01T06:01:41.070Z,8.08
2018-11-01T06:04:09.144Z,8.83
2018-11-01T06:06:44.654Z,8.67
2018-11-01T06:09:24.702Z,10.03
2018-11-01T06:11:53.945Z,8.75
2018-11-01T06:14:21.987Z,9.10
2018-11-01T06:16:50.169Z,8.50
2018-11-01T06:19:18.185Z,8.30
2018-11-01T06:21:46.199Z,9.63
2018-11-01T06:24:15.103Z,8.33
2018-11-01T06:26:43.456Z,9.20
2018-11-01T06:29:11.471Z,8.70
2018-11-01T06:31:39.514Z,9.70
2018-11-01T06:34:10.155Z,9.03
2018-11-01T06:36:38.184Z,9.30
2018-11-01T06:39:07.500Z,9.27
2018-11-01T06:41:35.557Z,9.28
2018-11-01T06:44:03.545Z,8.43
2018-11-01T06:46:31.724Z,8.45
2018-11-01T06:48:59.740Z,9.00
2018-11-01T06:51:27.808Z,8.90
2018-11-01T06:53:55.939Z,8.17
2018-11-01T06:56:24.115Z,8.00
2018-11-01T06:58:52.210Z,7.22
2018-11-01T07:01:20.145Z,8.90
2018-11-01T07:03:48.141Z,8.53
2018-11-01T07:06:16.161Z,8.13
2018-11-01T07:08:44.184Z,8.60
2018-11-01T07:11:12.188Z,7.80
2018-11-01T07:13:40.208Z,9.08
2018-11-01T07:16:08.244Z,8.88
2018-11-01T07:18:36.263Z,9.40
2018-11-01T07:21:04.321Z,8.55
2018-11-01T07:23:32.337Z,8.47
2018-11-01T07:26:00.479Z,9.18
2018-11-01T07:28:28.389Z,9.30
2018-11-01T07:30:56.385Z,10.93
2018-11-01T07:33:24.428Z,10.35
2018-11-01T07:35:52.436Z,9.53
2018-11-01T07:38:20.463Z,11.63
2018-11-01T07:40:48.491Z,10.95
2018-11-01T07:43:16.527Z,11.15
2018-11-01T07:45:44.552Z,10.68
2018-11-01T07:48:12.583Z,9.78
2018-11-01T07:50:40.597Z,10.30
2018-11-01T07:53:08.627Z,10.48
2018-11-01T07:55:36.641Z,9.47
2018-11-01T07:58:04.991Z,11.33
2018-11-01T08:00:33.022Z,10.85
2018-11-01T08:03:01.072Z,9.90
2018-11-01T08:05:29.073Z,10.20
2018-11-01T08:07:57.104Z,9.73
2018-11-01T08:10:25.224Z,10.43
2018-11-01T08:12:53.260Z,9.10
2018-11-01T08:15:21.952Z,12.03
2018-11-01T08:17:50.001Z,9.40
2018-11-01T08:20:18.514Z,10.95
2018-11-01T08:22:46.263Z,8.90
2018-11-01T08:25:14.752Z,12.18
2018-11-01T08:27:43.135Z,9.15
2018-11-01T08:30:13.268Z,14.33
2018-11-01T08:32:41.293Z,11.10
2018-11-01T08:35:10.537Z,13.15
2018-11-01T08:37:38.900Z,10.75
2018-11-01T08:40:07.739Z,11.05
2018-11-01T08:42:35.763Z,11.30
2018-11-01T08:45:03.918Z,10.30
2018-11-01T08:47:31.964Z,11.97
2018-11-01T08:50:00.042Z,12.83
2018-11-01T08:52:28.029Z,11.03
2018-11-01T08:54:56.123Z,15.58
2018-11-01T08:57:24.203Z,12.75
2018-11-01T08:59:52.244Z,13.90
2018-11-01T09:02:20.264Z,13.20
2018-11-01T09:04:48.348Z,13.80
2018-11-01T09:07:16.404Z,13.75
2018-11-01T09:09:44.532Z,12.40
2018-11-01T09:12:12.925Z,12.88
2018-11-01T09:14:41.089Z,12.60
2018-11-01T09:17:09.061Z,11.80
2018-11-01T09:19:37.092Z,13.83
2018-11-01T09:22:05.295Z,16.20
2018-11-01T09:24:33.339Z,12.40
2018-11-01T09:27:01.425Z,13.90
2018-11-01T09:29:29.401Z,13.75
2018-11-01T09:31:57.436Z,14.43
2018-11-01T09:34:25.500Z,13.10
2018-11-01T09:36:53.548Z,13.53
2018-11-01T09:39:21.604Z,17.73
2018-11-01T09:41:49.635Z,17.47
2018-11-01T09:44:17.681Z,16.05
2018-11-01T09:46:46.028Z,13.75
2018-11-01T09:49:13.773Z,13.78
2018-11-01T09:51:41.799Z,13.32
2018-11-01T09:54:09.873Z,13.95
2018-11-01T09:56:38.018Z,15.45
2018-11-01T09:59:05.943Z,13.08
2018-11-01T10:01:33.967Z,14.65
2018-11-01T10:04:01.996Z,15.40
2018-11-01T10:06:30.041Z,14.35
2018-11-01T10:08:58.068Z,13.60
2018-11-01T10:11:26.107Z,14.90
2018-11-01T10:13:54.127Z,14.47
2018-11-01T10:16:22.302Z,14.20
2018-11-01T10:18:50.209Z,14.33
2018-11-01T10:21:18.279Z,13.13
2018-11-01T10:23:46.276Z,14.23
2018-11-01T10:26:14.312Z,14.40
2018-11-01T10:28:42.384Z,13.80
2018-11-01T10:31:10.433Z,13.58
2018-11-01T10:33:38.492Z,13.30
2018-11-01T10:36:06.507Z,13.45
2018-11-01T10:38:34.529Z,17.10
2018-11-01T10:41:02.578Z,13.80
2018-11-01T10:43:30.624Z,13.48
2018-11-01T10:45:58.664Z,12.50
2018-11-01T10:48:26.702Z,13.70
2018-11-01T10:50:54.726Z,13.83
2018-11-01T10:53:22.765Z,13.40
2018-11-01T10:55:50.804Z,13.75
2018-11-01T10:58:18.840Z,13.50
2018-11-01T11:00:52.561Z,13.20
2018-11-01T11:03:20.508Z,13.50
2018-11-01T11:05:48.555Z,14.83
2018-11-01T11:08:16.588Z,13.80
2018-11-01T11:10:44.629Z,17.77
2018-11-01T11:13:12.696Z,14.57
2018-11-01T11:15:40.721Z,15.40
2018-11-01T11:18:08.777Z,14.45
2018-11-01T11:20:37.030Z,17.23
2018-11-01T11:23:04.839Z,16.32
2018-11-01T11:25:32.863Z,14.43
2018-11-01T11:28:00.895Z,14.60
2018-11-01T11:30:28.976Z,16.93
2018-11-01T11:32:56.944Z,13.83
2018-11-01T11:35:25.062Z,16.15
2018-11-01T11:37:53.025Z,14.10
2018-11-01T11:40:21.068Z,16.73
2018-11-01T11:42:49.112Z,15.40
2018-11-01T11:45:17.162Z,16.77
2018-11-01T11:47:45.183Z,14.05
2018-11-01T11:50:13.956Z,14.78
2018-11-01T11:52:43.259Z,14.47
2018-11-01T11:55:11.538Z,16.25
2018-11-01T11:57:39.806Z,15.38
2018-11-01T12:00:10.850Z,14.58
2018-11-01T12:02:38.860Z,15.37
2018-11-01T12:05:07.296Z,13.72
2018-11-01T12:07:35.312Z,14.70
2018-11-01T12:10:03.342Z,15.32
2018-11-01T12:12:31.355Z,14.93
2018-11-01T12:14:59.394Z,16.37
2018-11-01T12:17:27.418Z,14.35
2018-11-01T12:19:55.444Z,15.83
2018-11-01T12:22:23.634Z,17.00
2018-11-01T12:24:51.624Z,15.48
2018-11-01T12:27:19.650Z,14.53
2018-11-01T12:29:47.681Z,14.85
2018-11-01T12:32:15.723Z,14.90
2018-11-01T12:34:43.755Z,14.50
2018-11-01T12:37:11.772Z,14.75
2018-11-01T12:39:39.779Z,14.55
2018-11-01T12:42:07.847Z,13.03
2018-11-01T12:44:35.908Z,14.03
2018-11-01T12:47:03.929Z,16.10
2018-11-01T12:49:31.986Z,15.43
2018-11-01T12:51:59.996Z,15.10
2018-11-01T12:54:28.024Z,17.00
2018-11-01T12:56:56.036Z,15.63
2018-11-01T12:59:24.087Z,16.27
2018-11-01T13:01:52.120Z,13.87
2018-11-01T13:04:20.145Z,13.40
2018-11-01T13:06:48.236Z,14.43
2018-11-01T13:09:16.272Z,14.07
2018-11-01T13:11:45.080Z,15.00
2018-11-01T13:14:13.112Z,13.83
2018-11-01T13:16:41.180Z,14.93
2018-11-01T13:19:09.204Z,15.27
2018-11-01T13:21:37.216Z,17.37
2018-11-01T13:24:05.484Z,14.40
2018-11-01T13:26:33.509Z,13.50
2018-11-01T13:29:01.526Z,13.10
2018-11-01T13:31:29.548Z,14.60
2018-11-01T13:33:57.568Z,14.53
2018-11-01T13:36:25.595Z,13.13
2018-11-01T13:38:53.644Z,13.30
2018-11-01T13:41:21.759Z,13.53
2018-11-01T13:43:49.723Z,15.38
2018-11-01T13:46:17.849Z,12.63
2018-11-01T13:48:45.856Z,14.85
2018-11-01T13:51:13.884Z,14.00
2018-11-01T13:53:41.994Z,13.30
2018-11-01T13:56:10.004Z,13.65
2018-11-01T13:58:38.047Z,12.95
2018-11-01T14:01:06.307Z,20.02
2018-11-01T14:03:34.333Z,13.95
2018-11-01T14:06:02.425Z,13.13
2018-11-01T14:08:30.402Z,12.65
2018-11-01T14:10:58.423Z,12.90
2018-11-01T14:13:26.629Z,13.68
2018-11-01T14:15:54.504Z,13.40
2018-11-01T14:18:22.537Z,13.43
2018-11-01T14:20:50.580Z,14.75
2018-11-01T14:23:18.624Z,13.48
2018-11-01T14:25:46.642Z,13.20
2018-11-01T14:28:14.701Z,12.85
2018-11-01T14:30:42.736Z,13.90
2018-11-01T14:33:10.756Z,12.95
2018-11-01T14:35:38.804Z,13.45
2018-11-01T14:38:06.850Z,12.40
2018-11-01T14:40:34.877Z,14.53
2018-11-01T14:43:02.938Z,12.73
2018-11-01T14:45:30.976Z,23.23
2018-11-01T14:47:58.996Z,14.60
2018-11-01T14:50:27.029Z,13.90
2018-11-01T14:52:55.892Z,14.77
2018-11-01T14:55:24.095Z,15.88
2018-11-01T14:57:52.591Z,16.75
2018-11-01T15:00:19.226Z,14.40
2018-11-01T15:02:47.284Z,14.38
2018-11-01T15:05:15.300Z,15.20
2018-11-01T15:07:43.312Z,15.70
2018-11-01T15:10:13.016Z,14.95
2018-11-01T15:12:41.296Z,15.00
2018-11-01T15:15:09.665Z,17.00
2018-11-01T15:17:39.284Z,16.05
2018-11-01T15:20:07.768Z,15.75
2018-11-01T15:22:35.936Z,17.23
2018-11-01T15:25:04.245Z,15.47
2018-11-01T15:27:32.284Z,15.78
2018-11-01T15:30:00.375Z,16.47
2018-11-01T15:32:29.331Z,18.60
2018-11-01T15:34:58.133Z,15.80
2018-11-01T15:37:26.182Z,16.77
2018-11-01T15:39:54.793Z,18.07
2018-11-01T15:42:22.812Z,17.77
2018-11-01T15:44:51.020Z,16.93
2018-11-01T15:47:19.061Z,16.77
2018-11-01T15:49:47.072Z,17.40
2018-11-01T15:52:15.132Z,18.55
2018-11-01T15:54:43.156Z,16.90
2018-11-01T15:57:11.172Z,17.40
2018-11-01T15:59:39.307Z,20.57
2018-11-01T16:02:07.246Z,19.27
2018-11-01T16:04:35.260Z,17.37
2018-11-01T16:07:03.315Z,17.65
2018-11-01T16:09:31.384Z,16.90
2018-11-01T16:11:59.419Z,18.95
2018-11-01T16:14:27.458Z,17.10
2018-11-01T16:16:55.485Z,17.15
2018-11-01T16:19:23.610Z,17.48
2018-11-01T16:21:51.542Z,17.23
2018-11-01T16:24:19.569Z,18.02
2018-11-01T16:26:47.679Z,17.50
2018-11-01T16:29:15.663Z,19.07
2018-11-01T16:31:43.684Z,19.27
2018-11-01T16:34:11.720Z,19.27
2018-11-01T16:36:39.909Z,18.93
2018-11-01T16:39:12.165Z,17.67
2018-11-01T16:41:40.709Z,18.45
2018-11-01T16:44:09.325Z,19.93
2018-11-01T16:46:37.368Z,18.32
2018-11-01T16:49:06.312Z,19.27
2018-11-01T16:51:34.410Z,19.90
2018-11-01T16:54:02.412Z,19.98
2018-11-01T16:56:30.449Z,27.30
2018-11-01T16:58:58.521Z,19.20
2018-11-01T17:01:26.536Z,19.80
2018-11-01T17:03:54.577Z,19.70
2018-11-01T17:06:22.621Z,21.12
2018-11-01T17:08:50.809Z,22.17
2018-11-01T17:11:18.848Z,22.98
2018-11-01T17:13:46.880Z,20.82
2018-11-01T17:16:14.889Z,22.27
2018-11-01T17:18:43.120Z,21.35
2018-11-01T17:21:11.135Z,21.05
2018-11-01T17:23:39.393Z,23.12
2018-11-01T17:26:07.422Z,23.62
2018-11-01T17:28:35.469Z,22.95
2018-11-01T17:31:03.533Z,21.75
2018-11-01T17:33:31.548Z,22.67
2018-11-01T17:35:59.605Z,22.60
2018-11-01T17:38:27.625Z,23.92
2018-11-01T17:40:55.661Z,24.23
2018-11-01T17:43:23.780Z,24.77
2018-11-01T17:45:51.770Z,25.27
2018-11-01T17:48:19.828Z,25.50
2018-11-01T17:50:47.885Z,22.82
2018-11-01T17:53:15.916Z,23.35
2018-11-01T17:55:44.005Z,24.43
2018-11-01T17:58:12.022Z,24.20
2018-11-01T18:00:40.060Z,26.85
2018-11-01T18:03:14.509Z,23.70
2018-11-01T18:05:45.722Z,23.38
2018-11-01T18:08:13.818Z,23.73
2018-11-01T18:10:41.812Z,23.65
2018-11-01T18:13:09.900Z,23.38
2018-11-01T18:15:37.893Z,21.87
2018-11-01T18:18:05.931Z,21.27
2018-11-01T18:20:33.981Z,25.23
2018-11-01T18:23:02.045Z,22.80
2018-11-01T18:25:30.122Z,21.75
2018-11-01T18:27:58.107Z,23.00
2018-11-01T18:30:26.164Z,23.27
2018-11-01T18:32:54.419Z,24.07
2018-11-01T18:35:22.266Z,22.70
2018-11-01T18:37:50.293Z,24.37
2018-11-01T18:40:18.840Z,23.42
2018-11-01T18:42:46.899Z,23.75
2018-11-01T18:45:15.545Z,23.32
2018-11-01T18:47:44.139Z,23.67
2018-11-01T18:50:13.624Z,23.30
2018-11-01T18:52:41.806Z,23.35
2018-11-01T18:55:11.102Z,24.50
2018-11-01T18:57:39.283Z,24.20
2018-11-01T19:00:09.813Z,24.35
2018-11-01T19:02:37.931Z,25.62
2018-11-01T19:05:06.332Z,24.77
2018-11-01T19:07:34.380Z,25.02
2018-11-01T19:10:02.452Z,25.57
2018-11-01T19:12:30.530Z,25.05
2018-11-01T19:14:58.557Z,24.65
2018-11-01T19:17:26.612Z,25.90
2018-11-01T19:19:54.661Z,26.10
2018-11-01T19:22:22.692Z,26.35
2018-11-01T19:24:50.717Z,26.30
2018-11-01T19:27:19.032Z,27.53
2018-11-01T19:29:46.810Z,30.97
2018-11-01T19:32:14.832Z,27.37
2018-11-01T19:34:43.021Z,27.73
2018-11-01T19:37:11.176Z,26.27
2018-11-01T19:39:39.216Z,25.32
2018-11-01T19:42:07.416Z,26.68
2018-11-01T19:44:35.575Z,28.33
2018-11-01T19:47:03.591Z,27.13
2018-11-01T19:49:31.651Z,24.87
2018-11-01T19:51:59.640Z,25.00
2018-11-01T19:54:27.716Z,25.25
2018-11-01T19:56:55.739Z,25.05
2018-11-01T19:59:23.748Z,23.55
2018-11-01T20:01:51.792Z,23.32
2018-11-01T20:04:19.851Z,23.60
2018-11-01T20:06:48.039Z,22.05
2018-11-01T20:09:16.056Z,21.30
2018-11-01T20:11:44.088Z,25.17
2018-11-01T20:14:12.121Z,30.10
2018-11-01T20:16:40.195Z,29.63
2018-11-01T20:19:08.378Z,28.40
2018-11-01T20:21:36.392Z,24.05
2018-11-01T20:24:04.340Z,22.95
2018-11-01T20:26:32.371Z,21.37
2018-11-01T20:29:00.404Z,19.55
2018-11-01T20:31:28.433Z,19.00
2018-11-01T20:33:56.485Z,20.23
2018-11-01T20:36:24.542Z,20.57
2018-11-01T20:38:52.567Z,19.07
2018-11-01T20:41:20.596Z,18.80
2018-11-01T20:43:48.869Z,18.90
2018-11-01T20:46:16.939Z,19.20
2018-11-01T20:48:44.979Z,19.02
2018-11-01T20:51:13.013Z,18.90
2018-11-01T20:53:41.672Z,19.45
2018-11-01T20:56:09.721Z,20.00
2018-11-01T20:58:37.753Z,19.35
2018-11-01T21:01:05.772Z,20.35
2018-11-01T21:03:33.839Z,20.70
2018-11-01T21:06:01.846Z,20.23
2018-11-01T21:08:29.881Z,20.55
2018-11-01T21:10:57.974Z,20.40
2018-11-01T21:13:25.944Z,20.72
2018-11-01T21:15:53.984Z,22.02
2018-11-01T21:18:22.177Z,21.43
2018-11-01T21:20:50.349Z,21.65
2018-11-01T21:23:18.381Z,22.43
2018-11-01T21:25:46.404Z,21.45
2018-11-01T21:28:14.427Z,22.10
2018-11-01T21:30:42.439Z,22.00
2018-11-01T21:33:10.476Z,24.00
2018-11-01T21:35:38.604Z,23.70
2018-11-01T21:38:06.513Z,23.32
2018-11-01T21:40:34.565Z,23.60
2018-11-01T21:43:02.589Z,23.95
2018-11-01T21:45:30.637Z,24.75
2018-11-01T21:47:58.668Z,24.97
2018-11-01T21:50:26.691Z,23.30
2018-11-01T21:52:54.733Z,25.10
2018-11-01T21:55:22.766Z,24.12
2018-11-01T21:57:50.819Z,26.60
2018-11-01T22:00:18.844Z,26.70
2018-11-01T22:02:46.885Z,25.77
2018-11-01T22:05:14.913Z,28.05
2018-11-01T22:07:42.957Z,27.50
2018-11-01T22:10:11.340Z,28.05
2018-11-01T22:12:39.379Z,27.87
2018-11-01T22:15:09.013Z,30.40
2018-11-01T22:17:37.068Z,29.37
2018-11-01T22:20:05.976Z,28.80
2018-11-01T22:22:34.015Z,28.98
2018-11-01T22:25:02.092Z,28.02
2018-11-01T22:27:30.125Z,28.07
2018-11-01T22:29:58.277Z,28.62
2018-11-01T22:32:26.325Z,29.07
2018-11-01T22:34:54.377Z,29.15
2018-11-01T22:37:22.424Z,29.80
2018-11-01T22:39:50.449Z,29.35
2018-11-01T22:42:18.488Z,30.35
2018-11-01T22:44:46.529Z,30.60
2018-11-01T22:47:14.552Z,30.60
2018-11-01T22:49:42.572Z,32.00
2018-11-01T22:52:10.617Z,33.13
2018-11-01T22:54:38.684Z,33.80
2018-11-01T22:57:06.744Z,34.20
2018-11-01T22:59:34.870Z,34.10
2018-11-01T23:02:02.816Z,34.98
2018-11-01T23:04:30.840Z,35.78
2018-11-01T23:06:58.913Z,37.17
2018-11-01T23:09:26.927Z,37.75
2018-11-01T23:11:54.950Z,39.55
2018-11-01T23:14:22.996Z,38.40
2018-11-01T23:16:51.021Z,39.20
2018-11-01T23:19:19.049Z,39.73
2018-11-01T23:21:47.160Z,42.17
2018-11-01T23:24:15.325Z,41.53
2018-11-01T23:26:43.343Z,41.23
2018-11-01T23:29:11.421Z,41.02
2018-11-01T23:31:39.497Z,42.95
2018-11-01T23:34:07.525Z,40.93
2018-11-01T23:36:41.161Z,42.25
2018-11-01T23:39:14.708Z,42.53
2018-11-01T23:41:48.500Z,42.85
2018-11-01T23:44:22.273Z,43.58
2018-11-01T23:46:55.933Z,44.90
2018-11-01T23:49:33.172Z,45.10
2018-11-01T23:52:03.436Z,44.77
2018-11-01T23:54:31.452Z,44.10
2018-11-01T23:56:59.472Z,44.38
2018-11-01T23:59:27.528Z,43.30
